sensor_id;sensor_type;location;lat;lon;timestamp;P1;durP1;ratioP1;P2;durP2;ratioP2
67930;SDS011;63902;52.000;5.954;2024-01-30T00:00:53;19.67;;;9.85;;
67930;SDS011;63902;52.000;5.954;2024-01-30T00:01:53;12.85;;;8.73;;
67930;SDS011;63902;52.000;5.954;2024-01-30T00:02:54;16.38;;;10.02;;
67930;SDS011;63902;52.000;5.954;2024-01-30T00:03:54;15.98;;;10.57;;
67930;SDS011;63902;52.000;5.954;2024-01-30T00:04:55;16.55;;;10.07;;
67930;SDS011;63902;52.000;5.954;2024-01-30T00:05:55;16.48;;;9.82;;
67930;SDS011;63902;52.000;5.954;2024-01-30T00:06:56;15.70;;;9.90;;
67930;SDS011;63902;52.000;5.954;2024-01-30T00:07:56;15.68;;;9.75;;
67930;SDS011;63902;52.000;5.954;2024-01-30T00:08:57;16.42;;;10.38;;
67930;SDS011;63902;52.000;5.954;2024-01-30T00:09:58;14.23;;;10.25;;
67930;SDS011;63902;52.000;5.954;2024-01-30T00:10:59;18.35;;;10.13;;
67930;SDS011;63902;52.000;5.954;2024-01-30T00:11:59;20.63;;;9.93;;
67930;SDS011;63902;52.000;5.954;2024-01-30T00:13:00;14.73;;;9.52;;
67930;SDS011;63902;52.000;5.954;2024-01-30T00:14:00;13.25;;;8.95;;
67930;SDS011;63902;52.000;5.954;2024-01-30T00:15:01;14.25;;;10.07;;
67930;SDS011;63902;52.000;5.954;2024-01-30T00:16:01;18.55;;;9.80;;
67930;SDS011;63902;52.000;5.954;2024-01-30T00:17:02;19.20;;;10.30;;
67930;SDS011;63902;52.000;5.954;2024-01-30T00:18:02;15.18;;;9.77;;
67930;SDS011;63902;52.000;5.954;2024-01-30T00:19:03;15.50;;;9.32;;
67930;SDS011;63902;52.000;5.954;2024-01-30T00:20:04;16.60;;;10.20;;
67930;SDS011;63902;52.000;5.954;2024-01-30T00:21:05;14.10;;;10.25;;
67930;SDS011;63902;52.000;5.954;2024-01-30T00:22:06;16.92;;;10.48;;
67930;SDS011;63902;52.000;5.954;2024-01-30T00:23:06;16.05;;;9.57;;
67930;SDS011;63902;52.000;5.954;2024-01-30T00:24:07;17.17;;;9.70;;
67930;SDS011;63902;52.000;5.954;2024-01-30T00:25:09;23.45;;;10.40;;
67930;SDS011;63902;52.000;5.954;2024-01-30T00:26:09;14.02;;;9.68;;
67930;SDS011;63902;52.000;5.954;2024-01-30T00:27:10;12.45;;;8.65;;
67930;SDS011;63902;52.000;5.954;2024-01-30T00:28:10;15.52;;;10.40;;
67930;SDS011;63902;52.000;5.954;2024-01-30T00:29:11;13.27;;;10.07;;
67930;SDS011;63902;52.000;5.954;2024-01-30T00:30:12;17.02;;;8.95;;
67930;SDS011;63902;52.000;5.954;2024-01-30T00:31:12;13.25;;;9.60;;
67930;SDS011;63902;52.000;5.954;2024-01-30T00:32:13;17.08;;;9.82;;
67930;SDS011;63902;52.000;5.954;2024-01-30T00:33:13;14.32;;;9.07;;
67930;SDS011;63902;52.000;5.954;2024-01-30T00:34:14;13.13;;;9.25;;
67930;SDS011;63902;52.000;5.954;2024-01-30T00:35:14;19.17;;;9.63;;
67930;SDS011;63902;52.000;5.954;2024-01-30T00:36:15;13.18;;;9.63;;
67930;SDS011;63902;52.000;5.954;2024-01-30T00:37:15;13.52;;;9.63;;
67930;SDS011;63902;52.000;5.954;2024-01-30T00:38:16;15.02;;;9.82;;
67930;SDS011;63902;52.000;5.954;2024-01-30T00:39:16;14.95;;;9.35;;
67930;SDS011;63902;52.000;5.954;2024-01-30T00:40:18;15.45;;;9.40;;
67930;SDS011;63902;52.000;5.954;2024-01-30T00:41:18;13.38;;;8.85;;
67930;SDS011;63902;52.000;5.954;2024-01-30T00:42:19;15.02;;;9.68;;
67930;SDS011;63902;52.000;5.954;2024-01-30T00:43:19;13.48;;;8.73;;
67930;SDS011;63902;52.000;5.954;2024-01-30T00:44:20;13.90;;;9.65;;
67930;SDS011;63902;52.000;5.954;2024-01-30T00:45:20;14.77;;;9.25;;
67930;SDS011;63902;52.000;5.954;2024-01-30T00:46:21;15.43;;;9.05;;
67930;SDS011;63902;52.000;5.954;2024-01-30T00:47:22;17.77;;;9.25;;
67930;SDS011;63902;52.000;5.954;2024-01-30T00:48:23;12.90;;;9.05;;
67930;SDS011;63902;52.000;5.954;2024-01-30T00:49:23;13.63;;;8.88;;
67930;SDS011;63902;52.000;5.954;2024-01-30T00:50:24;11.30;;;8.52;;
67930;SDS011;63902;52.000;5.954;2024-01-30T00:51:24;12.73;;;9.10;;
67930;SDS011;63902;52.000;5.954;2024-01-30T00:52:24;13.43;;;8.95;;
67930;SDS011;63902;52.000;5.954;2024-01-30T00:53:25;12.20;;;8.45;;
67930;SDS011;63902;52.000;5.954;2024-01-30T00:54:26;13.25;;;8.60;;
67930;SDS011;63902;52.000;5.954;2024-01-30T00:55:28;13.13;;;8.85;;
67930;SDS011;63902;52.000;5.954;2024-01-30T00:56:28;16.58;;;8.70;;
67930;SDS011;63902;52.000;5.954;2024-01-30T00:57:28;16.55;;;8.85;;
67930;SDS011;63902;52.000;5.954;2024-01-30T00:58:29;13.63;;;9.05;;
67930;SDS011;63902;52.000;5.954;2024-01-30T00:59:29;15.07;;;9.00;;
67930;SDS011;63902;52.000;5.954;2024-01-30T01:00:30;23.27;;;9.30;;
67930;SDS011;63902;52.000;5.954;2024-01-30T01:01:30;15.13;;;8.93;;
67930;SDS011;63902;52.000;5.954;2024-01-30T01:02:31;11.43;;;8.48;;
67930;SDS011;63902;52.000;5.954;2024-01-30T01:03:31;12.52;;;9.05;;
67930;SDS011;63902;52.000;5.954;2024-01-30T01:04:32;16.52;;;8.85;;
67930;SDS011;63902;52.000;5.954;2024-01-30T01:05:32;13.27;;;9.07;;
67930;SDS011;63902;52.000;5.954;2024-01-30T01:06:33;21.23;;;8.80;;
67930;SDS011;63902;52.000;5.954;2024-01-30T01:07:33;12.82;;;8.45;;
67930;SDS011;63902;52.000;5.954;2024-01-30T01:08:34;11.80;;;8.95;;
67930;SDS011;63902;52.000;5.954;2024-01-30T01:09:34;14.95;;;9.30;;
67930;SDS011;63902;52.000;5.954;2024-01-30T01:10:36;13.10;;;8.38;;
67930;SDS011;63902;52.000;5.954;2024-01-30T01:11:37;12.93;;;9.07;;
67930;SDS011;63902;52.000;5.954;2024-01-30T01:12:37;16.02;;;9.38;;
67930;SDS011;63902;52.000;5.954;2024-01-30T01:13:38;16.42;;;8.73;;
67930;SDS011;63902;52.000;5.954;2024-01-30T01:14:38;14.20;;;9.35;;
67930;SDS011;63902;52.000;5.954;2024-01-30T01:15:38;13.13;;;9.18;;
67930;SDS011;63902;52.000;5.954;2024-01-30T01:16:39;14.85;;;8.93;;
67930;SDS011;63902;52.000;5.954;2024-01-30T01:17:40;17.45;;;9.05;;
67930;SDS011;63902;52.000;5.954;2024-01-30T01:18:40;14.23;;;9.15;;
67930;SDS011;63902;52.000;5.954;2024-01-30T01:19:41;14.95;;;8.85;;
67930;SDS011;63902;52.000;5.954;2024-01-30T01:20:41;15.52;;;9.02;;
67930;SDS011;63902;52.000;5.954;2024-01-30T01:21:42;16.58;;;9.23;;
67930;SDS011;63902;52.000;5.954;2024-01-30T01:22:42;12.32;;;8.57;;
67930;SDS011;63902;52.000;5.954;2024-01-30T01:23:43;12.25;;;8.27;;
67930;SDS011;63902;52.000;5.954;2024-01-30T01:24:43;14.80;;;9.05;;
67930;SDS011;63902;52.000;5.954;2024-01-30T01:25:45;12.45;;;8.55;;
67930;SDS011;63902;52.000;5.954;2024-01-30T01:26:45;11.65;;;8.05;;
67930;SDS011;63902;52.000;5.954;2024-01-30T01:27:46;14.30;;;9.05;;
67930;SDS011;63902;52.000;5.954;2024-01-30T01:28:46;14.10;;;8.82;;
67930;SDS011;63902;52.000;5.954;2024-01-30T01:29:47;21.80;;;9.13;;
67930;SDS011;63902;52.000;5.954;2024-01-30T01:30:47;15.48;;;8.45;;
67930;SDS011;63902;52.000;5.954;2024-01-30T01:31:48;13.20;;;8.43;;
67930;SDS011;63902;52.000;5.954;2024-01-30T01:32:48;12.75;;;8.32;;
67930;SDS011;63902;52.000;5.954;2024-01-30T01:33:48;11.88;;;8.10;;
67930;SDS011;63902;52.000;5.954;2024-01-30T01:34:49;15.25;;;9.20;;
67930;SDS011;63902;52.000;5.954;2024-01-30T01:35:49;12.90;;;8.20;;
67930;SDS011;63902;52.000;5.954;2024-01-30T01:36:50;14.35;;;9.13;;
67930;SDS011;63902;52.000;5.954;2024-01-30T01:37:51;18.05;;;8.93;;
67930;SDS011;63902;52.000;5.954;2024-01-30T01:38:52;16.48;;;8.35;;
67930;SDS011;63902;52.000;5.954;2024-01-30T01:39:52;12.88;;;9.23;;
67930;SDS011;63902;52.000;5.954;2024-01-30T01:40:54;11.38;;;8.00;;
67930;SDS011;63902;52.000;5.954;2024-01-30T01:41:54;10.80;;;8.20;;
67930;SDS011;63902;52.000;5.954;2024-01-30T01:42:55;12.77;;;9.25;;
67930;SDS011;63902;52.000;5.954;2024-01-30T01:43:56;13.65;;;9.10;;
67930;SDS011;63902;52.000;5.954;2024-01-30T01:44:56;12.35;;;8.60;;
67930;SDS011;63902;52.000;5.954;2024-01-30T01:45:57;18.80;;;9.05;;
67930;SDS011;63902;52.000;5.954;2024-01-30T01:46:57;13.15;;;8.75;;
67930;SDS011;63902;52.000;5.954;2024-01-30T01:47:58;16.05;;;9.32;;
67930;SDS011;63902;52.000;5.954;2024-01-30T01:48:59;14.70;;;8.32;;
67930;SDS011;63902;52.000;5.954;2024-01-30T01:50:00;16.08;;;9.45;;
67930;SDS011;63902;52.000;5.954;2024-01-30T01:51:01;12.30;;;8.52;;
67930;SDS011;63902;52.000;5.954;2024-01-30T01:52:02;13.23;;;8.50;;
67930;SDS011;63902;52.000;5.954;2024-01-30T01:53:03;13.15;;;8.77;;
67930;SDS011;63902;52.000;5.954;2024-01-30T01:54:05;10.88;;;8.27;;
67930;SDS011;63902;52.000;5.954;2024-01-30T01:55:06;15.80;;;8.88;;
67930;SDS011;63902;52.000;5.954;2024-01-30T01:56:08;15.05;;;9.15;;
67930;SDS011;63902;52.000;5.954;2024-01-30T01:57:09;13.40;;;8.35;;
67930;SDS011;63902;52.000;5.954;2024-01-30T01:58:10;13.50;;;8.52;;
67930;SDS011;63902;52.000;5.954;2024-01-30T01:59:11;10.48;;;8.15;;
67930;SDS011;63902;52.000;5.954;2024-01-30T02:00:11;12.60;;;8.10;;
67930;SDS011;63902;52.000;5.954;2024-01-30T02:01:13;13.98;;;9.23;;
67930;SDS011;63902;52.000;5.954;2024-01-30T02:02:16;11.95;;;8.25;;
67930;SDS011;63902;52.000;5.954;2024-01-30T02:03:19;12.52;;;8.60;;
67930;SDS011;63902;52.000;5.954;2024-01-30T02:04:20;16.38;;;9.95;;
67930;SDS011;63902;52.000;5.954;2024-01-30T02:05:20;13.32;;;8.43;;
67930;SDS011;63902;52.000;5.954;2024-01-30T02:06:21;15.10;;;9.30;;
67930;SDS011;63902;52.000;5.954;2024-01-30T02:07:22;12.73;;;8.70;;
67930;SDS011;63902;52.000;5.954;2024-01-30T02:08:23;15.25;;;9.77;;
67930;SDS011;63902;52.000;5.954;2024-01-30T02:09:24;13.88;;;9.38;;
67930;SDS011;63902;52.000;5.954;2024-01-30T02:10:25;16.27;;;9.07;;
67930;SDS011;63902;52.000;5.954;2024-01-30T02:11:26;16.70;;;9.10;;
67930;SDS011;63902;52.000;5.954;2024-01-30T02:12:28;16.92;;;9.52;;
67930;SDS011;63902;52.000;5.954;2024-01-30T02:13:28;15.45;;;9.90;;
67930;SDS011;63902;52.000;5.954;2024-01-30T02:14:29;19.90;;;10.00;;
67930;SDS011;63902;52.000;5.954;2024-01-30T02:15:29;11.05;;;8.35;;
67930;SDS011;63902;52.000;5.954;2024-01-30T02:16:30;14.75;;;9.32;;
67930;SDS011;63902;52.000;5.954;2024-01-30T02:17:30;15.73;;;9.23;;
67930;SDS011;63902;52.000;5.954;2024-01-30T02:18:31;15.38;;;8.98;;
67930;SDS011;63902;52.000;5.954;2024-01-30T02:19:31;16.00;;;9.18;;
67930;SDS011;63902;52.000;5.954;2024-01-30T02:20:31;13.23;;;9.68;;
67930;SDS011;63902;52.000;5.954;2024-01-30T02:21:36;15.90;;;8.95;;
67930;SDS011;63902;52.000;5.954;2024-01-30T02:22:37;13.48;;;8.75;;
67930;SDS011;63902;52.000;5.954;2024-01-30T02:23:39;15.85;;;8.32;;
67930;SDS011;63902;52.000;5.954;2024-01-30T02:24:41;18.35;;;8.90;;
67930;SDS011;63902;52.000;5.954;2024-01-30T02:25:42;12.75;;;8.93;;
67930;SDS011;63902;52.000;5.954;2024-01-30T02:26:43;14.50;;;9.13;;
67930;SDS011;63902;52.000;5.954;2024-01-30T02:27:44;16.55;;;9.98;;
67930;SDS011;63902;52.000;5.954;2024-01-30T02:28:44;13.88;;;9.27;;
67930;SDS011;63902;52.000;5.954;2024-01-30T02:29:45;14.15;;;9.07;;
67930;SDS011;63902;52.000;5.954;2024-01-30T02:30:45;16.50;;;8.88;;
67930;SDS011;63902;52.000;5.954;2024-01-30T02:31:46;15.70;;;9.43;;
67930;SDS011;63902;52.000;5.954;2024-01-30T02:32:47;15.30;;;9.10;;
67930;SDS011;63902;52.000;5.954;2024-01-30T02:33:47;19.65;;;8.98;;
67930;SDS011;63902;52.000;5.954;2024-01-30T02:34:48;16.35;;;9.10;;
67930;SDS011;63902;52.000;5.954;2024-01-30T02:35:48;16.55;;;9.23;;
67930;SDS011;63902;52.000;5.954;2024-01-30T02:36:50;15.00;;;9.48;;
67930;SDS011;63902;52.000;5.954;2024-01-30T02:37:50;16.52;;;9.52;;
67930;SDS011;63902;52.000;5.954;2024-01-30T02:38:51;15.43;;;9.50;;
67930;SDS011;63902;52.000;5.954;2024-01-30T02:39:51;15.95;;;9.20;;
67930;SDS011;63902;52.000;5.954;2024-01-30T02:40:52;17.05;;;9.15;;
67930;SDS011;63902;52.000;5.954;2024-01-30T02:41:52;17.65;;;9.07;;
67930;SDS011;63902;52.000;5.954;2024-01-30T02:42:53;18.50;;;9.43;;
67930;SDS011;63902;52.000;5.954;2024-01-30T02:43:53;15.18;;;9.88;;
67930;SDS011;63902;52.000;5.954;2024-01-30T02:44:54;15.38;;;9.90;;
67930;SDS011;63902;52.000;5.954;2024-01-30T02:45:54;18.30;;;9.90;;
67930;SDS011;63902;52.000;5.954;2024-01-30T02:46:55;14.45;;;9.35;;
67930;SDS011;63902;52.000;5.954;2024-01-30T02:47:55;13.65;;;8.48;;
67930;SDS011;63902;52.000;5.954;2024-01-30T02:48:56;15.27;;;9.85;;
67930;SDS011;63902;52.000;5.954;2024-01-30T02:49:56;18.65;;;9.63;;
67930;SDS011;63902;52.000;5.954;2024-01-30T02:50:56;13.52;;;8.60;;
67930;SDS011;63902;52.000;5.954;2024-01-30T02:51:58;14.35;;;8.95;;
67930;SDS011;63902;52.000;5.954;2024-01-30T02:52:59;14.75;;;9.00;;
67930;SDS011;63902;52.000;5.954;2024-01-30T02:53:59;16.35;;;9.93;;
67930;SDS011;63902;52.000;5.954;2024-01-30T02:55:00;17.05;;;8.55;;
67930;SDS011;63902;52.000;5.954;2024-01-30T02:56:01;18.70;;;9.57;;
67930;SDS011;63902;52.000;5.954;2024-01-30T02:57:02;18.65;;;8.65;;
67930;SDS011;63902;52.000;5.954;2024-01-30T02:58:03;14.15;;;8.48;;
67930;SDS011;63902;52.000;5.954;2024-01-30T02:59:03;13.32;;;8.82;;
67930;SDS011;63902;52.000;5.954;2024-01-30T03:00:04;13.07;;;9.13;;
67930;SDS011;63902;52.000;5.954;2024-01-30T03:01:06;13.52;;;8.35;;
67930;SDS011;63902;52.000;5.954;2024-01-30T03:02:06;15.68;;;8.65;;
67930;SDS011;63902;52.000;5.954;2024-01-30T03:03:07;17.10;;;8.52;;
67930;SDS011;63902;52.000;5.954;2024-01-30T03:04:07;10.90;;;8.18;;
67930;SDS011;63902;52.000;5.954;2024-01-30T03:05:08;12.02;;;8.20;;
67930;SDS011;63902;52.000;5.954;2024-01-30T03:06:08;14.90;;;9.45;;
67930;SDS011;63902;52.000;5.954;2024-01-30T03:07:10;14.43;;;8.40;;
67930;SDS011;63902;52.000;5.954;2024-01-30T03:08:11;17.55;;;8.57;;
67930;SDS011;63902;52.000;5.954;2024-01-30T03:09:11;14.88;;;8.20;;
67930;SDS011;63902;52.000;5.954;2024-01-30T03:10:12;14.88;;;8.85;;
67930;SDS011;63902;52.000;5.954;2024-01-30T03:11:12;12.63;;;8.50;;
67930;SDS011;63902;52.000;5.954;2024-01-30T03:12:13;13.80;;;8.60;;
67930;SDS011;63902;52.000;5.954;2024-01-30T03:13:13;14.32;;;8.73;;
67930;SDS011;63902;52.000;5.954;2024-01-30T03:14:14;12.35;;;8.00;;
67930;SDS011;63902;52.000;5.954;2024-01-30T03:15:14;13.98;;;8.55;;
67930;SDS011;63902;52.000;5.954;2024-01-30T03:16:15;14.18;;;8.45;;
67930;SDS011;63902;52.000;5.954;2024-01-30T03:17:15;15.48;;;8.88;;
67930;SDS011;63902;52.000;5.954;2024-01-30T03:18:16;13.57;;;8.30;;
67930;SDS011;63902;52.000;5.954;2024-01-30T03:19:16;13.88;;;8.60;;
67930;SDS011;63902;52.000;5.954;2024-01-30T03:20:16;17.60;;;8.55;;
67930;SDS011;63902;52.000;5.954;2024-01-30T03:21:17;11.82;;;8.45;;
67930;SDS011;63902;52.000;5.954;2024-01-30T03:22:19;12.40;;;8.10;;
67930;SDS011;63902;52.000;5.954;2024-01-30T03:23:19;12.60;;;7.88;;
67930;SDS011;63902;52.000;5.954;2024-01-30T03:24:20;20.30;;;8.38;;
67930;SDS011;63902;52.000;5.954;2024-01-30T03:25:20;15.60;;;8.55;;
67930;SDS011;63902;52.000;5.954;2024-01-30T03:26:21;11.27;;;8.05;;
67930;SDS011;63902;52.000;5.954;2024-01-30T03:27:21;15.23;;;8.93;;
67930;SDS011;63902;52.000;5.954;2024-01-30T03:28:22;12.98;;;8.30;;
67930;SDS011;63902;52.000;5.954;2024-01-30T03:29:22;12.70;;;7.55;;
67930;SDS011;63902;52.000;5.954;2024-01-30T03:30:22;12.10;;;7.95;;
67930;SDS011;63902;52.000;5.954;2024-01-30T03:31:23;14.93;;;8.30;;
67930;SDS011;63902;52.000;5.954;2024-01-30T03:32:23;12.85;;;7.22;;
67930;SDS011;63902;52.000;5.954;2024-01-30T03:33:24;12.35;;;8.05;;
67930;SDS011;63902;52.000;5.954;2024-01-30T03:34:24;15.00;;;8.88;;
67930;SDS011;63902;52.000;5.954;2024-01-30T03:35:25;16.05;;;8.00;;
67930;SDS011;63902;52.000;5.954;2024-01-30T03:36:25;15.05;;;7.90;;
67930;SDS011;63902;52.000;5.954;2024-01-30T03:37:27;11.75;;;8.25;;
67930;SDS011;63902;52.000;5.954;2024-01-30T03:38:27;12.43;;;8.23;;
67930;SDS011;63902;52.000;5.954;2024-01-30T03:39:28;10.75;;;7.97;;
67930;SDS011;63902;52.000;5.954;2024-01-30T03:40:28;15.55;;;8.13;;
67930;SDS011;63902;52.000;5.954;2024-01-30T03:41:29;11.25;;;8.15;;
67930;SDS011;63902;52.000;5.954;2024-01-30T03:42:29;14.00;;;7.80;;
67930;SDS011;63902;52.000;5.954;2024-01-30T03:43:30;13.40;;;7.90;;
67930;SDS011;63902;52.000;5.954;2024-01-30T03:44:30;13.70;;;8.98;;
67930;SDS011;63902;52.000;5.954;2024-01-30T03:45:31;14.02;;;7.78;;
67930;SDS011;63902;52.000;5.954;2024-01-30T03:46:31;14.80;;;7.72;;
67930;SDS011;63902;52.000;5.954;2024-01-30T03:47:31;14.90;;;8.30;;
67930;SDS011;63902;52.000;5.954;2024-01-30T03:48:32;13.15;;;8.38;;
67930;SDS011;63902;52.000;5.954;2024-01-30T03:49:32;12.18;;;7.32;;
67930;SDS011;63902;52.000;5.954;2024-01-30T03:50:33;12.55;;;8.10;;
67930;SDS011;63902;52.000;5.954;2024-01-30T03:51:33;13.52;;;8.05;;
67930;SDS011;63902;52.000;5.954;2024-01-30T03:52:35;14.65;;;8.35;;
67930;SDS011;63902;52.000;5.954;2024-01-30T03:53:35;10.52;;;7.68;;
67930;SDS011;63902;52.000;5.954;2024-01-30T03:54:36;17.42;;;8.05;;
67930;SDS011;63902;52.000;5.954;2024-01-30T03:55:36;13.65;;;8.82;;
67930;SDS011;63902;52.000;5.954;2024-01-30T03:56:37;10.35;;;8.00;;
67930;SDS011;63902;52.000;5.954;2024-01-30T03:57:37;16.75;;;8.00;;
67930;SDS011;63902;52.000;5.954;2024-01-30T03:58:38;14.32;;;7.95;;
67930;SDS011;63902;52.000;5.954;2024-01-30T03:59:41;10.13;;;8.18;;
67930;SDS011;63902;52.000;5.954;2024-01-30T04:00:41;18.58;;;8.55;;
67930;SDS011;63902;52.000;5.954;2024-01-30T04:01:42;14.25;;;8.07;;
67930;SDS011;63902;52.000;5.954;2024-01-30T04:02:42;11.50;;;7.93;;
67930;SDS011;63902;52.000;5.954;2024-01-30T04:03:43;13.57;;;8.48;;
67930;SDS011;63902;52.000;5.954;2024-01-30T04:04:43;11.73;;;8.10;;
67930;SDS011;63902;52.000;5.954;2024-01-30T04:05:44;15.10;;;9.27;;
67930;SDS011;63902;52.000;5.954;2024-01-30T04:06:45;13.68;;;8.48;;
67930;SDS011;63902;52.000;5.954;2024-01-30T04:07:47;19.02;;;8.27;;
67930;SDS011;63902;52.000;5.954;2024-01-30T04:08:48;14.32;;;8.68;;
67930;SDS011;63902;52.000;5.954;2024-01-30T04:09:48;14.32;;;8.18;;
67930;SDS011;63902;52.000;5.954;2024-01-30T04:10:49;13.65;;;8.32;;
67930;SDS011;63902;52.000;5.954;2024-01-30T04:11:49;12.32;;;8.25;;
67930;SDS011;63902;52.000;5.954;2024-01-30T04:12:50;13.20;;;8.43;;
67930;SDS011;63902;52.000;5.954;2024-01-30T04:13:50;13.88;;;8.63;;
67930;SDS011;63902;52.000;5.954;2024-01-30T04:14:51;12.90;;;8.70;;
67930;SDS011;63902;52.000;5.954;2024-01-30T04:15:51;11.75;;;8.40;;
67930;SDS011;63902;52.000;5.954;2024-01-30T04:16:52;10.93;;;7.95;;
67930;SDS011;63902;52.000;5.954;2024-01-30T04:17:52;13.52;;;8.60;;
67930;SDS011;63902;52.000;5.954;2024-01-30T04:18:53;12.50;;;8.10;;
67930;SDS011;63902;52.000;5.954;2024-01-30T04:19:53;12.27;;;8.00;;
67930;SDS011;63902;52.000;5.954;2024-01-30T04:20:54;13.60;;;8.93;;
67930;SDS011;63902;52.000;5.954;2024-01-30T04:21:54;12.15;;;7.90;;
67930;SDS011;63902;52.000;5.954;2024-01-30T04:22:56;15.45;;;8.35;;
67930;SDS011;63902;52.000;5.954;2024-01-30T04:23:57;13.88;;;8.43;;
67930;SDS011;63902;52.000;5.954;2024-01-30T04:24:57;13.25;;;8.77;;
67930;SDS011;63902;52.000;5.954;2024-01-30T04:25:58;12.85;;;8.35;;
67930;SDS011;63902;52.000;5.954;2024-01-30T04:26:58;15.52;;;8.93;;
67930;SDS011;63902;52.000;5.954;2024-01-30T04:27:59;13.20;;;8.10;;
67930;SDS011;63902;52.000;5.954;2024-01-30T04:28:59;12.20;;;8.45;;
67930;SDS011;63902;52.000;5.954;2024-01-30T04:30:00;15.02;;;9.23;;
67930;SDS011;63902;52.000;5.954;2024-01-30T04:31:00;13.80;;;8.35;;
67930;SDS011;63902;52.000;5.954;2024-01-30T04:32:00;13.68;;;8.50;;
67930;SDS011;63902;52.000;5.954;2024-01-30T04:33:01;12.45;;;8.45;;
67930;SDS011;63902;52.000;5.954;2024-01-30T04:34:01;14.70;;;7.35;;
67930;SDS011;63902;52.000;5.954;2024-01-30T04:35:02;13.00;;;8.32;;
67930;SDS011;63902;52.000;5.954;2024-01-30T04:36:03;14.52;;;8.52;;
67930;SDS011;63902;52.000;5.954;2024-01-30T04:37:04;13.38;;;7.47;;
67930;SDS011;63902;52.000;5.954;2024-01-30T04:38:06;16.88;;;8.10;;
67930;SDS011;63902;52.000;5.954;2024-01-30T04:39:07;13.45;;;8.10;;
67930;SDS011;63902;52.000;5.954;2024-01-30T04:40:07;13.70;;;8.30;;
67930;SDS011;63902;52.000;5.954;2024-01-30T04:41:08;14.63;;;7.88;;
67930;SDS011;63902;52.000;5.954;2024-01-30T04:42:09;12.30;;;8.10;;
67930;SDS011;63902;52.000;5.954;2024-01-30T04:43:09;16.38;;;8.52;;
67930;SDS011;63902;52.000;5.954;2024-01-30T04:44:10;15.30;;;8.70;;
67930;SDS011;63902;52.000;5.954;2024-01-30T04:45:11;16.77;;;8.65;;
67930;SDS011;63902;52.000;5.954;2024-01-30T04:46:12;11.63;;;7.75;;
67930;SDS011;63902;52.000;5.954;2024-01-30T04:47:12;12.32;;;7.80;;
67930;SDS011;63902;52.000;5.954;2024-01-30T04:48:13;14.88;;;7.93;;
67930;SDS011;63902;52.000;5.954;2024-01-30T04:49:13;11.25;;;7.63;;
67930;SDS011;63902;52.000;5.954;2024-01-30T04:50:14;14.38;;;8.52;;
67930;SDS011;63902;52.000;5.954;2024-01-30T04:51:14;13.13;;;8.02;;
67930;SDS011;63902;52.000;5.954;2024-01-30T04:52:15;12.43;;;7.20;;
67930;SDS011;63902;52.000;5.954;2024-01-30T04:53:16;12.15;;;7.90;;
67930;SDS011;63902;52.000;5.954;2024-01-30T04:54:17;12.32;;;7.82;;
67930;SDS011;63902;52.000;5.954;2024-01-30T04:55:17;11.80;;;7.82;;
67930;SDS011;63902;52.000;5.954;2024-01-30T04:56:18;13.25;;;7.88;;
67930;SDS011;63902;52.000;5.954;2024-01-30T04:57:18;12.20;;;8.07;;
67930;SDS011;63902;52.000;5.954;2024-01-30T04:58:19;12.27;;;7.95;;
67930;SDS011;63902;52.000;5.954;2024-01-30T04:59:19;11.05;;;8.38;;
67930;SDS011;63902;52.000;5.954;2024-01-30T05:00:20;13.13;;;8.25;;
67930;SDS011;63902;52.000;5.954;2024-01-30T05:01:20;14.13;;;8.27;;
67930;SDS011;63902;52.000;5.954;2024-01-30T05:02:21;12.60;;;8.88;;
67930;SDS011;63902;52.000;5.954;2024-01-30T05:03:21;11.10;;;7.70;;
67930;SDS011;63902;52.000;5.954;2024-01-30T05:04:22;15.73;;;8.75;;
67930;SDS011;63902;52.000;5.954;2024-01-30T05:05:22;14.77;;;8.60;;
67930;SDS011;63902;52.000;5.954;2024-01-30T05:06:25;13.43;;;8.30;;
67930;SDS011;63902;52.000;5.954;2024-01-30T05:07:26;15.88;;;8.20;;
67930;SDS011;63902;52.000;5.954;2024-01-30T05:08:28;17.83;;;8.45;;
67930;SDS011;63902;52.000;5.954;2024-01-30T05:09:29;12.10;;;8.27;;
67930;SDS011;63902;52.000;5.954;2024-01-30T05:10:29;12.60;;;8.27;;
67930;SDS011;63902;52.000;5.954;2024-01-30T05:11:29;14.23;;;8.77;;
67930;SDS011;63902;52.000;5.954;2024-01-30T05:12:30;11.73;;;8.05;;
67930;SDS011;63902;52.000;5.954;2024-01-30T05:13:30;12.93;;;7.82;;
67930;SDS011;63902;52.000;5.954;2024-01-30T05:14:31;14.52;;;8.07;;
67930;SDS011;63902;52.000;5.954;2024-01-30T05:15:31;15.10;;;8.38;;
67930;SDS011;63902;52.000;5.954;2024-01-30T05:16:32;11.57;;;7.55;;
67930;SDS011;63902;52.000;5.954;2024-01-30T05:17:33;13.38;;;8.50;;
67930;SDS011;63902;52.000;5.954;2024-01-30T05:18:33;11.13;;;7.65;;
67930;SDS011;63902;52.000;5.954;2024-01-30T05:19:33;14.63;;;8.35;;
67930;SDS011;63902;52.000;5.954;2024-01-30T05:20:34;14.95;;;8.00;;
67930;SDS011;63902;52.000;5.954;2024-01-30T05:21:34;15.57;;;8.05;;
67930;SDS011;63902;52.000;5.954;2024-01-30T05:22:35;11.43;;;7.45;;
67930;SDS011;63902;52.000;5.954;2024-01-30T05:23:37;13.07;;;7.72;;
67930;SDS011;63902;52.000;5.954;2024-01-30T05:24:37;10.95;;;7.55;;
67930;SDS011;63902;52.000;5.954;2024-01-30T05:25:38;11.52;;;7.40;;
67930;SDS011;63902;52.000;5.954;2024-01-30T05:26:38;11.63;;;8.40;;
67930;SDS011;63902;52.000;5.954;2024-01-30T05:27:38;13.95;;;8.13;;
67930;SDS011;63902;52.000;5.954;2024-01-30T05:28:39;12.80;;;8.15;;
67930;SDS011;63902;52.000;5.954;2024-01-30T05:29:39;17.08;;;8.95;;
67930;SDS011;63902;52.000;5.954;2024-01-30T05:30:40;14.25;;;7.68;;
67930;SDS011;63902;52.000;5.954;2024-01-30T05:31:40;12.88;;;7.38;;
67930;SDS011;63902;52.000;5.954;2024-01-30T05:32:41;14.30;;;8.10;;
67930;SDS011;63902;52.000;5.954;2024-01-30T05:33:41;16.10;;;8.27;;
67930;SDS011;63902;52.000;5.954;2024-01-30T05:34:42;16.65;;;8.23;;
67930;SDS011;63902;52.000;5.954;2024-01-30T05:35:42;13.75;;;8.10;;
67930;SDS011;63902;52.000;5.954;2024-01-30T05:36:43;13.32;;;8.20;;
67930;SDS011;63902;52.000;5.954;2024-01-30T05:37:43;15.50;;;7.85;;
67930;SDS011;63902;52.000;5.954;2024-01-30T05:38:45;11.07;;;7.47;;
67930;SDS011;63902;52.000;5.954;2024-01-30T05:39:46;11.73;;;8.18;;
67930;SDS011;63902;52.000;5.954;2024-01-30T05:40:46;11.60;;;8.10;;
67930;SDS011;63902;52.000;5.954;2024-01-30T05:41:46;12.18;;;7.72;;
67930;SDS011;63902;52.000;5.954;2024-01-30T05:42:47;12.77;;;8.15;;
67930;SDS011;63902;52.000;5.954;2024-01-30T05:43:47;14.75;;;8.45;;
67930;SDS011;63902;52.000;5.954;2024-01-30T05:44:48;12.18;;;7.78;;
67930;SDS011;63902;52.000;5.954;2024-01-30T05:45:48;13.23;;;8.18;;
67930;SDS011;63902;52.000;5.954;2024-01-30T05:46:49;11.13;;;8.25;;
67930;SDS011;63902;52.000;5.954;2024-01-30T05:47:49;15.38;;;8.88;;
67930;SDS011;63902;52.000;5.954;2024-01-30T05:48:50;14.70;;;8.30;;
67930;SDS011;63902;52.000;5.954;2024-01-30T05:49:50;16.88;;;8.32;;
67930;SDS011;63902;52.000;5.954;2024-01-30T05:50:51;14.45;;;7.57;;
67930;SDS011;63902;52.000;5.954;2024-01-30T05:51:51;13.05;;;8.18;;
67930;SDS011;63902;52.000;5.954;2024-01-30T05:52:52;21.60;;;8.32;;
67930;SDS011;63902;52.000;5.954;2024-01-30T05:53:53;15.02;;;8.20;;
67930;SDS011;63902;52.000;5.954;2024-01-30T05:54:54;13.10;;;8.30;;
67930;SDS011;63902;52.000;5.954;2024-01-30T05:55:54;12.10;;;7.95;;
67930;SDS011;63902;52.000;5.954;2024-01-30T05:56:55;12.25;;;8.35;;
67930;SDS011;63902;52.000;5.954;2024-01-30T05:57:55;14.85;;;8.10;;
67930;SDS011;63902;52.000;5.954;2024-01-30T05:58:56;16.17;;;9.00;;
67930;SDS011;63902;52.000;5.954;2024-01-30T05:59:56;17.33;;;8.95;;